Buoy 46930

sailwx.info

Track history (hours):
 
Tides and Currents Weather Stations Pressure Air Temp Water Temp Dewpoint Dewpoint Depression Visibility Wind Speed Wind Dir Waves Ship Positions

Drifting buoy 46930

Last reported at 2016-Apr-29 08:00 UTC. Time now 2016-Apr-29 15:51 UTC.
Position N 18°47' W 151°01'.

Date/timePositionNaut miles runAvg speedWind from/ knotsBaromVisibWave heightAir tempDewpointWater temp
2016-Apr-29 08:00N 18°47' W 151°01'1 0.5
2016-Apr-29 07:00N 18°46' W 151°00'1 0.5
2016-Apr-29 06:00N 18°46' W 150°60'1 0.7
2016-Apr-29 04:00N 18°46' W 150°58'1 1.0
2016-Apr-29 03:00N 18°45' W 150°57'1 0.9
2016-Apr-29 02:00N 18°45' W 150°56'7 0.7
2016-Apr-28 16:00N 18°46' W 150°49'4 0.5
2016-Apr-28 08:00N 18°46' W 150°45'2 0.5
2016-Apr-28 04:00N 18°46' W 150°43'2 1.0
2016-Apr-28 02:00N 18°46' W 150°41'6 0.8
2016-Apr-27 19:00N 18°47' W 150°35'0 0.5
2016-Apr-27 18:00N 18°46' W 150°35'0 0.4
2016-Apr-27 17:00N 18°46' W 150°35'2 1.6
2016-Apr-27 16:00N 18°47' W 150°33'0 0.2
2016-Apr-27 15:00N 18°47' W 150°33'6 0.9
2016-Apr-27 08:00N 18°49' W 150°26'2 0.8
2016-Apr-27 06:00N 18°49' W 150°25'0 0.0
2016-Apr-27 05:00N 18°49' W 150°25'1 1.2
2016-Apr-27 04:00N 18°50' W 150°24'1 0.3
2016-Apr-27 02:00N 18°50' W 150°23'0 0.0
2016-Apr-27 01:00N 18°50' W 150°23'2 1.1
2016-Apr-26 23:00N 18°51' W 150°21'0 0.0
2016-Apr-26 20:00N 18°51' W 150°21'1 0.5
2016-Apr-26 17:00N 18°51' W 150°20'1 1.1
2016-Apr-26 16:00N 18°52' W 150°19'0 0.2
2016-Apr-26 14:00N 18°52' W 150°19'1 1.2
2016-Apr-26 13:00N 18°53' W 150°18'4 0.8
2016-Apr-26 08:00N 18°54' W 150°14'0 0.0
2016-Apr-26 07:00N 18°54' W 150°14'2 0.7
2016-Apr-26 04:00N 18°56' W 150°12'0 0.1
2016-Apr-26 03:00N 18°56' W 150°13'0 0.2
2016-Apr-26 02:00N 18°56' W 150°12'6 0.6
2016-Apr-25 17:00N 18°59' W 150°07'6 0.6
2016-Apr-25 07:00N 19°03' W 150°03'1 0.6
2016-Apr-25 06:00N 19°03' W 150°03'1 0.6
2016-Apr-25 05:00N 19°03' W 150°03'2 1.6
2016-Apr-25 04:00N 19°04' W 150°02'3 3.0
2016-Apr-25 03:00N 19°06' W 149°59'0 0.0
2016-Apr-25 00:00N 19°06' W 149°59'1 0.9
2016-Apr-24 23:00N 19°07' W 149°59'4 0.7
2016-Apr-24 17:00N 19°10' W 149°56'2 1.1
2016-Apr-24 15:00N 19°12' W 149°55'0 0.0
2016-Apr-24 14:00N 19°12' W 149°55'4 0.6
2016-Apr-24 07:00N 19°15' W 149°52'1 0.9
2016-Apr-24 06:00N 19°15' W 149°52'1 1.2
2016-Apr-24 05:00N 19°16' W 149°51'1 1.1
2016-Apr-24 04:00N 19°17' W 149°50'0 0.0
2016-Apr-24 03:00N 19°17' W 149°50'1 0.9
2016-Apr-24 02:00N 19°18' W 149°49'1 0.8
2016-Apr-24 01:00N 19°19' W 149°49'5 0.6
2016-Apr-23 16:00N 19°22' W 149°45'1 0.4
2016-Apr-23 14:00N 19°23' W 149°44'5 0.8
2016-Apr-23 08:00N 19°26' W 149°40'2 1.5
2016-Apr-23 07:00N 19°27' W 149°39'3 0.9
2016-Apr-23 04:00N 19°29' W 149°37'1 0.9
2016-Apr-23 03:00N 19°29' W 149°36'6 0.9
2016-Apr-22 20:00N 19°32' W 149°31'1 1.1
2016-Apr-22 19:00N 19°33' W 149°30'2 1.7
2016-Apr-22 18:00N 19°34' W 149°29'0 0.0
2016-Apr-22 17:00N 19°34' W 149°29'2 1.8
2016-Apr-22 16:00N 19°34' W 149°27'2 0.8
2016-Apr-22 14:00N 19°36' W 149°26'5 0.8
2016-Apr-22 08:00N 19°37' W 149°21'5 1.0
2016-Apr-22 03:00N 19°38' W 149°16'1 1.4
2016-Apr-22 02:00N 19°39' W 149°15'0 0.0
2016-Apr-22 01:00N 19°39' W 149°15'2 1.8
2016-Apr-22 00:00N 19°40' W 149°13'2 0.4
2016-Apr-21 20:00N 19°41' W 149°12'3 0.8
2016-Apr-21 16:00N 19°42' W 149°09'1 1.1
2016-Apr-21 15:00N 19°42' W 149°08'1 1.4
2016-Apr-21 14:00N 19°42' W 149°06'8 0.9
2016-Apr-21 05:00N 19°43' W 148°58'0 0.2
2016-Apr-21 04:00N 19°43' W 148°58'3 1.4
2016-Apr-21 02:00N 19°45' W 148°55'6 0.8
2016-Apr-20 19:00N 19°45' W 148°49'0 0.0
2016-Apr-20 18:00N 19°45' W 148°49'2 1.2
2016-Apr-20 16:00N 19°45' W 148°46'1 0.6
2016-Apr-20 15:00N 19°45' W 148°46'1 1.2
2016-Apr-20 14:00N 19°45' W 148°44'6 0.8
2016-Apr-20 07:00N 19°46' W 148°38'2 0.8
2016-Apr-20 05:00N 19°46' W 148°37'2 1.6
2016-Apr-20 04:00N 19°45' W 148°35'1 0.7
2016-Apr-20 03:00N 19°45' W 148°34'1 0.9
2016-Apr-20 02:00N 19°45' W 148°33'0 0.0
2016-Apr-20 01:00N 19°45' W 148°33'2 0.9
2016-Apr-19 23:00N 19°45' W 148°31'4 0.9
2016-Apr-19 19:00N 19°46' W 148°28'2 1.8
2016-Apr-19 18:00N 19°45' W 148°26'0 0.2
2016-Apr-19 17:00N 19°46' W 148°26'2 1.6
2016-Apr-19 16:00N 19°46' W 148°24'1 0.7
2016-Apr-19 15:00N 19°46' W 148°23'1 0.8
2016-Apr-19 14:00N 19°46' W 148°22'  
Track history (hours):
 
Tides and Currents Weather Stations Pressure Air Temp Water Temp Dewpoint Dewpoint Depression Visibility Wind Speed Wind Dir Waves Ship Positions

Drifting buoy 46930

Last reported at 2016-Apr-29 08:00 UTC. Time now 2016-Apr-29 15:51 UTC.
Position N 18°47' W 151°01'.

Date/timePositionNaut miles runAvg speedWind from/ knotsBaromVisibWave heightAir tempDewpointWater temp
2016-Apr-29 08:00N 18°47' W 151°01'1 0.5
2016-Apr-29 07:00N 18°46' W 151°00'1 0.5
2016-Apr-29 06:00N 18°46' W 150°60'1 0.7
2016-Apr-29 04:00N 18°46' W 150°58'1 1.0
2016-Apr-29 03:00N 18°45' W 150°57'1 0.9
2016-Apr-29 02:00N 18°45' W 150°56'7 0.7
2016-Apr-28 16:00N 18°46' W 150°49'4 0.5
2016-Apr-28 08:00N 18°46' W 150°45'2 0.5
2016-Apr-28 04:00N 18°46' W 150°43'2 1.0
2016-Apr-28 02:00N 18°46' W 150°41'6 0.8
2016-Apr-27 19:00N 18°47' W 150°35'0 0.5
2016-Apr-27 18:00N 18°46' W 150°35'0 0.4
2016-Apr-27 17:00N 18°46' W 150°35'2 1.6
2016-Apr-27 16:00N 18°47' W 150°33'0 0.2
2016-Apr-27 15:00N 18°47' W 150°33'6 0.9
2016-Apr-27 08:00N 18°49' W 150°26'2 0.8
2016-Apr-27 06:00N 18°49' W 150°25'0 0.0
2016-Apr-27 05:00N 18°49' W 150°25'1 1.2
2016-Apr-27 04:00N 18°50' W 150°24'1 0.3
2016-Apr-27 02:00N 18°50' W 150°23'0 0.0
2016-Apr-27 01:00N 18°50' W 150°23'2 1.1
2016-Apr-26 23:00N 18°51' W 150°21'0 0.0
2016-Apr-26 20:00N 18°51' W 150°21'1 0.5
2016-Apr-26 17:00N 18°51' W 150°20'1 1.1
2016-Apr-26 16:00N 18°52' W 150°19'0 0.2
2016-Apr-26 14:00N 18°52' W 150°19'1 1.2
2016-Apr-26 13:00N 18°53' W 150°18'4 0.8
2016-Apr-26 08:00N 18°54' W 150°14'0 0.0
2016-Apr-26 07:00N 18°54' W 150°14'2 0.7
2016-Apr-26 04:00N 18°56' W 150°12'0 0.1
2016-Apr-26 03:00N 18°56' W 150°13'0 0.2
2016-Apr-26 02:00N 18°56' W 150°12'6 0.6
2016-Apr-25 17:00N 18°59' W 150°07'6 0.6
2016-Apr-25 07:00N 19°03' W 150°03'1 0.6
2016-Apr-25 06:00N 19°03' W 150°03'1 0.6
2016-Apr-25 05:00N 19°03' W 150°03'2 1.6
2016-Apr-25 04:00N 19°04' W 150°02'3 3.0
2016-Apr-25 03:00N 19°06' W 149°59'0 0.0
2016-Apr-25 00:00N 19°06' W 149°59'1 0.9
2016-Apr-24 23:00N 19°07' W 149°59'4 0.7
2016-Apr-24 17:00N 19°10' W 149°56'2 1.1
2016-Apr-24 15:00N 19°12' W 149°55'0 0.0
2016-Apr-24 14:00N 19°12' W 149°55'4 0.6
2016-Apr-24 07:00N 19°15' W 149°52'1 0.9
2016-Apr-24 06:00N 19°15' W 149°52'1 1.2
2016-Apr-24 05:00N 19°16' W 149°51'1 1.1
2016-Apr-24 04:00N 19°17' W 149°50'0 0.0
2016-Apr-24 03:00N 19°17' W 149°50'1 0.9
2016-Apr-24 02:00N 19°18' W 149°49'1 0.8
2016-Apr-24 01:00N 19°19' W 149°49'5 0.6
2016-Apr-23 16:00N 19°22' W 149°45'1 0.4
2016-Apr-23 14:00N 19°23' W 149°44'5 0.8
2016-Apr-23 08:00N 19°26' W 149°40'2 1.5
2016-Apr-23 07:00N 19°27' W 149°39'3 0.9
2016-Apr-23 04:00N 19°29' W 149°37'1 0.9
2016-Apr-23 03:00N 19°29' W 149°36'6 0.9
2016-Apr-22 20:00N 19°32' W 149°31'1 1.1
2016-Apr-22 19:00N 19°33' W 149°30'2 1.7
2016-Apr-22 18:00N 19°34' W 149°29'0 0.0
2016-Apr-22 17:00N 19°34' W 149°29'2 1.8
2016-Apr-22 16:00N 19°34' W 149°27'2 0.8
2016-Apr-22 14:00N 19°36' W 149°26'5 0.8
2016-Apr-22 08:00N 19°37' W 149°21'5 1.0
2016-Apr-22 03:00N 19°38' W 149°16'1 1.4
2016-Apr-22 02:00N 19°39' W 149°15'0 0.0
2016-Apr-22 01:00N 19°39' W 149°15'2 1.8
2016-Apr-22 00:00N 19°40' W 149°13'2 0.4
2016-Apr-21 20:00N 19°41' W 149°12'3 0.8
2016-Apr-21 16:00N 19°42' W 149°09'1 1.1
2016-Apr-21 15:00N 19°42' W 149°08'1 1.4
2016-Apr-21 14:00N 19°42' W 149°06'8 0.9
2016-Apr-21 05:00N 19°43' W 148°58'0 0.2
2016-Apr-21 04:00N 19°43' W 148°58'3 1.4
2016-Apr-21 02:00N 19°45' W 148°55'6 0.8
2016-Apr-20 19:00N 19°45' W 148°49'0 0.0
2016-Apr-20 18:00N 19°45' W 148°49'2 1.2
2016-Apr-20 16:00N 19°45' W 148°46'1 0.6
2016-Apr-20 15:00N 19°45' W 148°46'1 1.2
2016-Apr-20 14:00N 19°45' W 148°44'6 0.8
2016-Apr-20 07:00N 19°46' W 148°38'2 0.8
2016-Apr-20 05:00N 19°46' W 148°37'2 1.6
2016-Apr-20 04:00N 19°45' W 148°35'1 0.7
2016-Apr-20 03:00N 19°45' W 148°34'1 0.9
2016-Apr-20 02:00N 19°45' W 148°33'0 0.0
2016-Apr-20 01:00N 19°45' W 148°33'2 0.9
2016-Apr-19 23:00N 19°45' W 148°31'4 0.9
2016-Apr-19 19:00N 19°46' W 148°28'2 1.8
2016-Apr-19 18:00N 19°45' W 148°26'0 0.2
2016-Apr-19 17:00N 19°46' W 148°26'2 1.6
2016-Apr-19 16:00N 19°46' W 148°24'1 0.7
2016-Apr-19 15:00N 19°46' W 148°23'1 0.8
2016-Apr-19 14:00N 19°46' W 148°22'  

Dump ship's entire track history